Stations météo

Publicité
St-Raphael, France (7680): Température de l'air & dewpoint: 16.07.2019 18:00:00 - 22.07.2019 18:00:00 (CEST)St-Raphael, France (7680): Vitesse du vent & gusts: 16.07.2019 18:00:00 - 22.07.2019 18:00:00 (CEST)St-Raphael, France (7680): Direction du vent: 16.07.2019 18:00:00 - 22.07.2019 18:00:00 (CEST)St-Raphael, France (7680): Quantités de précipitations: 16.07.2019 18:00:00 - 22.07.2019 18:00:00 (CEST)
Date & Time tt [°C] td [°C] ff [km/h] ff [knt] fx [km/h] fx [knt] dd rr [mm]
22.07.2019 18:00:00 - - - - - - - -
22.07.2019 17:00:00 28,7 21,2 11 6 26 14 SSE 0,0
22.07.2019 16:00:00 28,4 21,2 13 7 26 14 SE 0,0
22.07.2019 15:00:00 28,1 21,9 11 6 26 14 SE 0,0
22.07.2019 14:00:00 29,2 22,4 11 6 26 14 SSE -
22.07.2019 13:00:00 28,1 21,9 13 7 28 15 SE 0,0
22.07.2019 12:00:00 28,3 21,8 13 7 28 15 SE 0,0
22.07.2019 11:00:00 28,1 21,1 13 7 24 13 ESE 0,0
22.07.2019 10:00:00 27,7 20,5 5 3 15 8 SSE 0,0
22.07.2019 09:00:00 25,2 20,2 4 2 11 6 WNW 0,0
22.07.2019 08:00:00 22,9 19,5 5 3 11 6 WNW -
22.07.2019 07:00:00 21,2 18,9 4 2 9 5 NW 0,0
22.07.2019 06:00:00 21,1 18,8 4 2 9 5 WNW 0,0
22.07.2019 05:00:00 21,4 19,0 4 2 9 5 WNW 0,0
22.07.2019 04:00:00 21,9 19,5 4 2 9 5 WNW 0,0
22.07.2019 03:00:00 22,0 19,5 5 3 9 5 WNW 0,0
22.07.2019 02:00:00 22,6 19,8 0 0 8 4 N -
22.07.2019 01:00:00 23,2 19,8 2 1 8 4 WNW 0,0
22.07.2019 00:00:00 23,9 20,2 5 3 8 4 W 0,0
21.07.2019 23:00:00 24,7 20,2 4 2 9 5 N 0,0
21.07.2019 22:00:00 25,2 20,7 8 4 21 11 NE 0,0
21.07.2019 21:00:00 25,6 20,6 8 4 26 14 ENE 0,0
21.07.2019 20:00:00 26,3 20,2 13 7 29 16 E -
21.07.2019 19:00:00 27,4 20,7 15 8 29 16 E 0,0
21.07.2019 18:00:00 28,0 20,6 13 7 34 18 E 0,0
21.07.2019 17:00:00 27,8 21,1 18 10 35 19 E 0,0
21.07.2019 16:00:00 28,1 21,4 18 10 34 18 ESE 0,0
21.07.2019 15:00:00 28,6 21,4 16 9 29 16 ESE 0,0
21.07.2019 14:00:00 28,4 20,4 15 8 28 15 ESE -
21.07.2019 13:00:00 28,7 19,6 13 7 24 13 SE 0,0
21.07.2019 12:00:00 27,7 18,4 13 7 22 12 SE 0,0
21.07.2019 11:00:00 28,7 17,2 8 4 15 8 SE 0,0
21.07.2019 10:00:00 25,4 16,5 4 2 15 8 WNW 0,0
21.07.2019 09:00:00 23,7 17,4 5 3 13 7 NNW 0,0
21.07.2019 08:00:00 20,8 17,2 5 3 11 6 NNW -
21.07.2019 07:00:00 20,3 17,5 4 2 11 6 NNW 0,0
21.07.2019 06:00:00 19,3 17,6 4 2 9 5 WNW 0,0
21.07.2019 05:00:00 20,0 18,1 5 3 9 5 NW 0,0
21.07.2019 04:00:00 19,8 18,3 4 2 9 5 W 0,0
21.07.2019 03:00:00 20,9 18,7 4 2 8 4 WNW 0,0
21.07.2019 02:00:00 21,2 19,3 4 2 9 5 NW -
21.07.2019 01:00:00 21,9 19,8 4 2 8 4 WNW 0,0
21.07.2019 00:00:00 22,7 20,0 4 2 9 5 NW 0,0
20.07.2019 23:00:00 23,3 20,6 5 3 8 4 W 0,0
20.07.2019 22:00:00 23,9 20,2 2 1 9 5 S 0,0
20.07.2019 21:00:00 25,0 20,5 5 3 15 8 SSE 0,0
20.07.2019 20:00:00 25,4 20,6 8 4 16 9 SE -
20.07.2019 19:00:00 26,5 21,0 9 5 18 10 ESE 0,0
20.07.2019 18:00:00 27,3 21,1 9 5 24 13 SE 0,0
20.07.2019 17:00:00 27,5 20,8 13 7 26 14 ESE 0,0
20.07.2019 16:00:00 27,9 21,0 11 6 28 15 SE 0,0
20.07.2019 15:00:00 27,6 20,4 15 8 28 15 ESE 0,0
20.07.2019 14:00:00 28,2 20,7 11 6 26 14 SE -
20.07.2019 13:00:00 27,9 19,9 13 7 26 14 SE 0,0
20.07.2019 12:00:00 27,4 21,0 15 8 28 15 SE 0,0
20.07.2019 11:00:00 27,5 20,8 13 7 26 14 ESE 0,0
20.07.2019 10:00:00 26,9 21,0 9 5 21 11 SE 0,0
20.07.2019 09:00:00 24,6 19,7 4 2 13 7 WNW 0,0
20.07.2019 08:00:00 21,9 18,5 5 3 9 5 WNW -
20.07.2019 07:00:00 20,3 17,9 5 3 11 6 NW 0,0
20.07.2019 06:00:00 19,9 17,9 4 2 11 6 WNW 0,0
20.07.2019 05:00:00 20,4 17,8 5 3 8 4 WNW 0,0
20.07.2019 04:00:00 20,6 17,8 4 2 9 5 NW 0,0
20.07.2019 03:00:00 21,1 17,9 4 2 9 5 NW 0,0
20.07.2019 02:00:00 21,5 18,3 4 2 8 4 NW -
20.07.2019 01:00:00 22,0 18,2 2 1 9 5 NW 0,0
20.07.2019 00:00:00 22,6 19,6 4 2 8 4 WNW 0,0
19.07.2019 23:00:00 23,0 20,3 2 1 5 3 SW 0,0
19.07.2019 22:00:00 23,8 20,5 4 2 9 5 SSE 0,0
19.07.2019 21:00:00 24,5 20,4 5 3 15 8 SSE 0,0
19.07.2019 20:00:00 25,6 20,4 8 4 18 10 SE -
19.07.2019 19:00:00 26,2 20,3 9 5 21 11 SE 0,0
19.07.2019 18:00:00 26,8 20,6 11 6 24 13 SE 0,0
19.07.2019 17:00:00 27,1 20,7 11 6 24 13 SE 0,0
19.07.2019 16:00:00 28,2 21,0 11 6 28 15 SE 0,0
19.07.2019 15:00:00 27,8 20,4 13 7 28 15 ESE 0,0
19.07.2019 14:00:00 27,7 20,8 13 7 29 16 SE -
19.07.2019 13:00:00 27,9 21,0 11 6 26 14 SE 0,0
19.07.2019 12:00:00 27,8 21,1 11 6 22 12 SE 0,0
19.07.2019 11:00:00 27,4 20,7 8 4 21 11 SE 0,0
19.07.2019 10:00:00 26,6 20,0 8 4 15 8 SE 0,0
19.07.2019 09:00:00 23,9 19,0 4 2 11 6 WNW 0,0
19.07.2019 08:00:00 21,2 17,8 8 4 13 7 WNW -
19.07.2019 07:00:00 19,4 17,2 5 3 13 7 WNW 0,0
19.07.2019 06:00:00 19,2 17,3 5 3 11 6 WNW 0,0
19.07.2019 05:00:00 19,9 17,5 5 3 11 6 NNW 0,0
19.07.2019 04:00:00 19,9 17,7 4 2 8 4 WNW 0,0
19.07.2019 03:00:00 20,4 17,4 5 3 9 5 NW 0,0
19.07.2019 02:00:00 21,0 17,4 5 3 8 4 NW -
19.07.2019 01:00:00 21,4 17,6 2 1 9 5 N 0,0
19.07.2019 00:00:00 22,6 19,2 4 2 8 4 NW 0,0
18.07.2019 23:00:00 23,8 19,9 4 2 11 6 E 0,0
18.07.2019 22:00:00 23,9 20,0 5 3 11 6 ESE 0,0
18.07.2019 21:00:00 24,5 20,0 5 3 15 8 SE 0,0
18.07.2019 20:00:00 25,3 20,3 5 3 18 10 SE -
18.07.2019 19:00:00 25,9 20,2 9 5 24 13 SE 0,0
18.07.2019 18:00:00 25,8 20,1 11 6 26 14 SE 0,0
18.07.2019 17:00:00 27,4 20,2 11 6 28 15 SE 0,0
18.07.2019 16:00:00 27,0 20,3 13 7 31 17 SE 0,0
18.07.2019 15:00:00 27,3 20,6 16 9 34 18 SE 0,0
18.07.2019 14:00:00 27,7 19,5 16 9 34 18 ESE -
18.07.2019 13:00:00 27,9 19,7 13 7 28 15 ESE 0,0
18.07.2019 12:00:00 27,6 19,7 13 7 24 13 SE 0,0
18.07.2019 11:00:00 27,1 19,7 9 5 18 10 SSE 0,0
18.07.2019 10:00:00 25,6 19,0 2 1 13 7 SW 0,2
18.07.2019 09:00:00 23,2 18,9 8 4 15 8 WNW 0,0
18.07.2019 08:00:00 20,8 18,0 8 4 13 7 WNW -
18.07.2019 07:00:00 19,1 17,2 8 4 15 8 NW 0,0
18.07.2019 06:00:00 18,8 17,3 5 3 13 7 WNW 0,0
18.07.2019 05:00:00 19,2 17,9 5 3 11 6 WNW 0,0
18.07.2019 04:00:00 19,5 18,2 5 3 9 5 W 0,0
18.07.2019 03:00:00 20,1 18,2 4 2 8 4 N 0,0
18.07.2019 02:00:00 20,6 18,5 4 2 8 4 N -
18.07.2019 01:00:00 21,6 19,3 4 2 8 4 WNW 0,0
18.07.2019 00:00:00 22,3 20,2 4 2 8 4 W 0,0
17.07.2019 23:00:00 23,4 20,3 0 0 13 7 N 0,0
17.07.2019 22:00:00 24,1 20,6 5 3 18 10 E 0,0
17.07.2019 21:00:00 24,6 20,9 9 5 21 11 E 0,0
17.07.2019 20:00:00 25,1 20,8 9 5 21 11 ESE -
17.07.2019 19:00:00 25,4 21,3 9 5 21 11 ESE 0,0
17.07.2019 18:00:00 26,4 21,2 9 5 24 13 ESE 0,0
17.07.2019 17:00:00 27,3 19,6 11 6 24 13 SE 0,0
17.07.2019 16:00:00 27,9 18,3 11 6 28 15 SE 0,0
17.07.2019 15:00:00 27,7 19,0 13 7 26 14 SSE 0,0
17.07.2019 14:00:00 27,2 19,5 11 6 28 15 SE -
17.07.2019 13:00:00 - - - - - - - -
17.07.2019 12:00:00 26,9 20,0 15 8 29 16 SE 0,0
17.07.2019 11:00:00 27,4 18,1 8 4 18 10 SSE 0,0
17.07.2019 10:00:00 26,1 14,9 8 4 13 7 WSW 0,0
17.07.2019 09:00:00 23,8 13,9 5 3 16 9 NW 0,0
17.07.2019 08:00:00 20,6 13,5 9 5 15 8 NW -
17.07.2019 07:00:00 19,5 13,2 8 4 18 10 NNW 0,0
17.07.2019 06:00:00 18,7 12,7 8 4 18 10 N 0,0
17.07.2019 05:00:00 19,1 12,6 8 4 16 9 N 0,0
17.07.2019 04:00:00 19,7 12,5 9 5 16 9 N 0,0
17.07.2019 03:00:00 20,4 12,1 8 4 18 10 N 0,0
17.07.2019 02:00:00 20,9 12,1 9 5 16 9 N -
17.07.2019 01:00:00 21,1 12,5 5 3 9 5 N 0,0
17.07.2019 00:00:00 21,2 14,8 0 0 9 5 N 0,0
16.07.2019 23:00:00 22,2 15,3 0 0 8 4 N 0,0
16.07.2019 22:00:00 24,7 14,2 4 2 11 6 NNE 0,0
16.07.2019 21:00:00 26,5 11,4 2 1 18 10 S 0,0
16.07.2019 20:00:00 29,1 10,7 11 6 29 16 S -
16.07.2019 19:00:00 29,0 13,6 16 9 34 18 SSE 0,0
16.07.2019 18:00:00 28,5 15,4 16 9 35 19 SSE 0,0

tt = Température de l'air
td = dewpoint
ff = Vitesse du vent
fx = gusts
dd = Direction du vent
rr = Quantités de précipitations

stations d'obs. à proximité